sensor_id;sensor_type;location;lat;lon;timestamp;P1;durP1;ratioP1;P2;durP2;ratioP2
69627;SDS011;56850;51.984;5.088;2023-02-21T00:00:36;35.58;;;16.60;;
69627;SDS011;56850;51.984;5.088;2023-02-21T00:03:21;37.90;;;16.52;;
69627;SDS011;56850;51.984;5.088;2023-02-21T00:06:07;31.65;;;15.35;;
69627;SDS011;56850;51.984;5.088;2023-02-21T00:08:53;31.98;;;14.27;;
69627;SDS011;56850;51.984;5.088;2023-02-21T00:11:42;32.30;;;14.90;;
69627;SDS011;56850;51.984;5.088;2023-02-21T00:14:27;35.33;;;15.32;;
69627;SDS011;56850;51.984;5.088;2023-02-21T00:17:13;38.03;;;15.45;;
69627;SDS011;56850;51.984;5.088;2023-02-21T00:19:58;35.63;;;15.80;;
69627;SDS011;56850;51.984;5.088;2023-02-21T00:22:44;36.60;;;15.82;;
69627;SDS011;56850;51.984;5.088;2023-02-21T00:25:30;28.30;;;13.47;;
69627;SDS011;56850;51.984;5.088;2023-02-21T00:28:15;38.20;;;17.80;;
69627;SDS011;56850;51.984;5.088;2023-02-21T00:31:02;37.67;;;15.85;;
69627;SDS011;56850;51.984;5.088;2023-02-21T00:33:49;37.30;;;14.90;;
69627;SDS011;56850;51.984;5.088;2023-02-21T00:36:35;51.10;;;17.58;;
69627;SDS011;56850;51.984;5.088;2023-02-21T00:39:21;39.80;;;16.40;;
69627;SDS011;56850;51.984;5.088;2023-02-21T00:42:06;44.28;;;17.40;;
69627;SDS011;56850;51.984;5.088;2023-02-21T00:44:52;43.08;;;17.80;;
69627;SDS011;56850;51.984;5.088;2023-02-21T00:47:37;43.30;;;16.90;;
69627;SDS011;56850;51.984;5.088;2023-02-21T00:50:22;43.40;;;17.50;;
69627;SDS011;56850;51.984;5.088;2023-02-21T00:53:08;34.17;;;13.23;;
69627;SDS011;56850;51.984;5.088;2023-02-21T00:55:53;31.58;;;14.77;;
69627;SDS011;56850;51.984;5.088;2023-02-21T00:58:39;39.67;;;16.88;;
69627;SDS011;56850;51.984;5.088;2023-02-21T01:01:24;41.10;;;16.27;;
69627;SDS011;56850;51.984;5.088;2023-02-21T01:04:10;38.38;;;17.35;;
69627;SDS011;56850;51.984;5.088;2023-02-21T01:06:56;40.37;;;17.60;;
69627;SDS011;56850;51.984;5.088;2023-02-21T01:09:42;35.17;;;14.70;;
69627;SDS011;56850;51.984;5.088;2023-02-21T01:12:27;46.00;;;17.33;;
69627;SDS011;56850;51.984;5.088;2023-02-21T01:15:13;40.35;;;15.35;;
69627;SDS011;56850;51.984;5.088;2023-02-21T01:17:59;39.13;;;16.65;;
69627;SDS011;56850;51.984;5.088;2023-02-21T01:20:45;49.57;;;17.17;;
69627;SDS011;56850;51.984;5.088;2023-02-21T01:23:32;41.85;;;16.90;;
69627;SDS011;56850;51.984;5.088;2023-02-21T01:26:18;48.83;;;18.00;;
69627;SDS011;56850;51.984;5.088;2023-02-21T01:29:03;48.80;;;17.42;;
69627;SDS011;56850;51.984;5.088;2023-02-21T01:31:49;51.65;;;18.80;;
69627;SDS011;56850;51.984;5.088;2023-02-21T01:34:37;46.50;;;19.00;;
69627;SDS011;56850;51.984;5.088;2023-02-21T01:37:23;45.03;;;18.90;;
69627;SDS011;56850;51.984;5.088;2023-02-21T01:40:08;51.10;;;19.10;;
69627;SDS011;56850;51.984;5.088;2023-02-21T01:43:00;47.65;;;19.13;;
69627;SDS011;56850;51.984;5.088;2023-02-21T01:45:50;48.88;;;19.88;;
69627;SDS011;56850;51.984;5.088;2023-02-21T01:48:37;46.07;;;19.13;;
69627;SDS011;56850;51.984;5.088;2023-02-21T01:51:26;44.47;;;17.63;;
69627;SDS011;56850;51.984;5.088;2023-02-21T01:54:15;53.50;;;20.92;;
69627;SDS011;56850;51.984;5.088;2023-02-21T01:57:03;53.83;;;20.40;;
69627;SDS011;56850;51.984;5.088;2023-02-21T01:59:51;57.22;;;19.67;;
69627;SDS011;56850;51.984;5.088;2023-02-21T02:05:36;58.45;;;20.50;;
69627;SDS011;56850;51.984;5.088;2023-02-21T02:08:26;54.40;;;20.65;;
69627;SDS011;56850;51.984;5.088;2023-02-21T02:14:30;52.67;;;18.50;;
69627;SDS011;56850;51.984;5.088;2023-02-21T02:25:55;49.03;;;17.77;;
69627;SDS011;56850;51.984;5.088;2023-02-21T02:34:28;51.83;;;18.85;;
69627;SDS011;56850;51.984;5.088;2023-02-21T02:37:04;52.03;;;19.90;;
69627;SDS011;56850;51.984;5.088;2023-02-21T02:39:39;50.42;;;19.52;;
69627;SDS011;56850;51.984;5.088;2023-02-21T02:45:33;54.33;;;19.00;;
69627;SDS011;56850;51.984;5.088;2023-02-21T02:48:21;46.58;;;17.98;;
69627;SDS011;56850;51.984;5.088;2023-02-21T02:50:53;49.40;;;20.70;;
69627;SDS011;56850;51.984;5.088;2023-02-21T02:53:24;48.47;;;19.55;;
69627;SDS011;56850;51.984;5.088;2023-02-21T02:58:25;57.50;;;20.60;;
69627;SDS011;56850;51.984;5.088;2023-02-21T03:01:06;52.78;;;20.75;;
69627;SDS011;56850;51.984;5.088;2023-02-21T03:21:56;55.40;;;22.60;;
69627;SDS011;56850;51.984;5.088;2023-02-21T03:24:26;62.70;;;25.50;;
69627;SDS011;56850;51.984;5.088;2023-02-21T03:27:03;62.73;;;23.40;;
69627;SDS011;56850;51.984;5.088;2023-02-21T03:29:48;58.38;;;23.20;;
69627;SDS011;56850;51.984;5.088;2023-02-21T03:32:26;62.47;;;24.65;;
69627;SDS011;56850;51.984;5.088;2023-02-21T03:34:57;60.03;;;24.83;;
69627;SDS011;56850;51.984;5.088;2023-02-21T03:37:36;83.38;;;25.10;;
69627;SDS011;56850;51.984;5.088;2023-02-21T03:40:08;69.87;;;22.77;;
69627;SDS011;56850;51.984;5.088;2023-02-21T03:42:44;68.75;;;24.85;;
69627;SDS011;56850;51.984;5.088;2023-02-21T03:45:13;68.13;;;25.42;;
69627;SDS011;56850;51.984;5.088;2023-02-21T03:47:41;66.90;;;25.38;;
69627;SDS011;56850;51.984;5.088;2023-02-21T03:50:09;76.00;;;25.27;;
69627;SDS011;56850;51.984;5.088;2023-02-21T03:52:39;58.43;;;23.57;;
69627;SDS011;56850;51.984;5.088;2023-02-21T03:55:07;60.22;;;24.25;;
69627;SDS011;56850;51.984;5.088;2023-02-21T03:57:34;74.35;;;26.00;;
69627;SDS011;56850;51.984;5.088;2023-02-21T04:00:03;88.57;;;25.27;;
69627;SDS011;56850;51.984;5.088;2023-02-21T04:02:40;83.45;;;24.90;;
69627;SDS011;56850;51.984;5.088;2023-02-21T04:05:11;73.97;;;23.60;;
69627;SDS011;56850;51.984;5.088;2023-02-21T04:07:39;84.65;;;22.75;;
69627;SDS011;56850;51.984;5.088;2023-02-21T04:10:06;88.00;;;24.52;;
69627;SDS011;56850;51.984;5.088;2023-02-21T04:12:41;71.13;;;23.52;;
69627;SDS011;56850;51.984;5.088;2023-02-21T04:15:09;86.75;;;25.38;;
69627;SDS011;56850;51.984;5.088;2023-02-21T04:17:36;84.37;;;26.20;;
69627;SDS011;56850;51.984;5.088;2023-02-21T04:20:04;67.65;;;22.90;;
69627;SDS011;56850;51.984;5.088;2023-02-21T04:22:36;99.70;;;26.55;;
69627;SDS011;56850;51.984;5.088;2023-02-21T04:25:03;73.05;;;25.42;;
69627;SDS011;56850;51.984;5.088;2023-02-21T04:27:35;66.70;;;24.65;;
69627;SDS011;56850;51.984;5.088;2023-02-21T04:30:03;75.80;;;24.53;;
69627;SDS011;56850;51.984;5.088;2023-02-21T04:32:30;93.43;;;26.90;;
69627;SDS011;56850;51.984;5.088;2023-02-21T04:34:59;65.88;;;23.80;;
69627;SDS011;56850;51.984;5.088;2023-02-21T04:37:27;84.93;;;25.75;;
69627;SDS011;56850;51.984;5.088;2023-02-21T04:39:53;76.47;;;26.90;;
69627;SDS011;56850;51.984;5.088;2023-02-21T04:42:21;90.77;;;25.80;;
69627;SDS011;56850;51.984;5.088;2023-02-21T04:44:47;75.53;;;26.27;;
69627;SDS011;56850;51.984;5.088;2023-02-21T04:47:26;68.28;;;24.90;;
69627;SDS011;56850;51.984;5.088;2023-02-21T04:49:53;73.32;;;26.40;;
69627;SDS011;56850;51.984;5.088;2023-02-21T04:52:20;80.38;;;24.52;;
69627;SDS011;56850;51.984;5.088;2023-02-21T04:54:47;81.30;;;26.27;;
69627;SDS011;56850;51.984;5.088;2023-02-21T04:57:15;65.63;;;22.25;;
69627;SDS011;56850;51.984;5.088;2023-02-21T04:59:42;91.90;;;26.77;;
69627;SDS011;56850;51.984;5.088;2023-02-21T05:02:09;81.22;;;25.00;;
69627;SDS011;56850;51.984;5.088;2023-02-21T05:04:36;72.30;;;26.05;;
69627;SDS011;56850;51.984;5.088;2023-02-21T05:07:03;84.03;;;25.90;;
69627;SDS011;56850;51.984;5.088;2023-02-21T05:09:30;90.82;;;26.77;;
69627;SDS011;56850;51.984;5.088;2023-02-21T05:11:57;85.10;;;25.55;;
69627;SDS011;56850;51.984;5.088;2023-02-21T05:14:24;69.95;;;24.58;;
69627;SDS011;56850;51.984;5.088;2023-02-21T05:16:51;81.50;;;25.20;;
69627;SDS011;56850;51.984;5.088;2023-02-21T05:19:19;63.63;;;21.13;;
69627;SDS011;56850;51.984;5.088;2023-02-21T05:21:53;78.32;;;25.27;;
69627;SDS011;56850;51.984;5.088;2023-02-21T05:24:23;89.00;;;25.10;;
69627;SDS011;56850;51.984;5.088;2023-02-21T05:26:50;77.63;;;23.70;;
69627;SDS011;56850;51.984;5.088;2023-02-21T05:29:18;78.50;;;25.10;;
69627;SDS011;56850;51.984;5.088;2023-02-21T05:31:45;94.70;;;25.07;;
69627;SDS011;56850;51.984;5.088;2023-02-21T05:34:13;95.63;;;25.27;;
69627;SDS011;56850;51.984;5.088;2023-02-21T05:36:40;81.05;;;24.10;;
69627;SDS011;56850;51.984;5.088;2023-02-21T05:39:08;93.47;;;25.45;;
69627;SDS011;56850;51.984;5.088;2023-02-21T05:41:35;80.97;;;25.85;;
69627;SDS011;56850;51.984;5.088;2023-02-21T05:44:02;94.63;;;27.07;;
69627;SDS011;56850;51.984;5.088;2023-02-21T05:46:31;98.18;;;26.25;;
69627;SDS011;56850;51.984;5.088;2023-02-21T05:49:00;97.72;;;27.90;;
69627;SDS011;56850;51.984;5.088;2023-02-21T05:51:33;93.43;;;26.33;;
69627;SDS011;56850;51.984;5.088;2023-02-21T05:54:01;96.43;;;26.58;;
69627;SDS011;56850;51.984;5.088;2023-02-21T05:56:29;98.30;;;26.40;;
69627;SDS011;56850;51.984;5.088;2023-02-21T05:58:56;98.90;;;28.33;;
69627;SDS011;56850;51.984;5.088;2023-02-21T06:01:23;98.47;;;28.05;;
69627;SDS011;56850;51.984;5.088;2023-02-21T06:03:50;107.13;;;28.60;;
69627;SDS011;56850;51.984;5.088;2023-02-21T06:06:17;104.78;;;29.35;;
69627;SDS011;56850;51.984;5.088;2023-02-21T06:08:47;102.73;;;28.63;;
69627;SDS011;56850;51.984;5.088;2023-02-21T06:11:21;112.97;;;28.90;;
69627;SDS011;56850;51.984;5.088;2023-02-21T06:13:50;107.20;;;28.98;;
69627;SDS011;56850;51.984;5.088;2023-02-21T06:16:17;100.55;;;28.38;;
69627;SDS011;56850;51.984;5.088;2023-02-21T06:18:44;102.72;;;29.27;;
69627;SDS011;56850;51.984;5.088;2023-02-21T06:21:15;120.90;;;30.20;;
69627;SDS011;56850;51.984;5.088;2023-02-21T06:23:42;90.30;;;29.27;;
69627;SDS011;56850;51.984;5.088;2023-02-21T06:26:09;87.57;;;28.98;;
69627;SDS011;56850;51.984;5.088;2023-02-21T06:28:37;100.97;;;30.25;;
69627;SDS011;56850;51.984;5.088;2023-02-21T06:31:04;93.88;;;28.83;;
69627;SDS011;56850;51.984;5.088;2023-02-21T06:33:31;111.40;;;30.17;;
69627;SDS011;56850;51.984;5.088;2023-02-21T06:36:02;112.57;;;30.50;;
69627;SDS011;56850;51.984;5.088;2023-02-21T06:38:33;103.43;;;29.70;;
69627;SDS011;56850;51.984;5.088;2023-02-21T06:41:04;95.43;;;29.23;;
69627;SDS011;56850;51.984;5.088;2023-02-21T06:43:32;107.15;;;30.05;;
69627;SDS011;56850;51.984;5.088;2023-02-21T06:45:59;100.17;;;28.33;;
69627;SDS011;56850;51.984;5.088;2023-02-21T06:48:26;106.57;;;30.58;;
69627;SDS011;56850;51.984;5.088;2023-02-21T06:50:53;94.85;;;28.88;;
69627;SDS011;56850;51.984;5.088;2023-02-21T06:53:20;107.97;;;30.55;;
69627;SDS011;56850;51.984;5.088;2023-02-21T06:55:48;103.88;;;29.55;;
69627;SDS011;56850;51.984;5.088;2023-02-21T06:58:14;107.63;;;29.83;;
69627;SDS011;56850;51.984;5.088;2023-02-21T07:00:41;101.28;;;28.15;;
69627;SDS011;56850;51.984;5.088;2023-02-21T07:03:08;105.15;;;28.90;;
69627;SDS011;56850;51.984;5.088;2023-02-21T07:05:35;118.97;;;29.27;;
69627;SDS011;56850;51.984;5.088;2023-02-21T07:08:03;95.95;;;27.50;;
69627;SDS011;56850;51.984;5.088;2023-02-21T07:10:31;94.30;;;27.53;;
69627;SDS011;56850;51.984;5.088;2023-02-21T07:12:57;112.30;;;29.73;;
69627;SDS011;56850;51.984;5.088;2023-02-21T07:15:25;107.72;;;28.50;;
69627;SDS011;56850;51.984;5.088;2023-02-21T07:17:52;136.52;;;29.05;;
69627;SDS011;56850;51.984;5.088;2023-02-21T07:20:19;135.52;;;30.17;;
69627;SDS011;56850;51.984;5.088;2023-02-21T07:22:46;101.37;;;27.43;;
69627;SDS011;56850;51.984;5.088;2023-02-21T07:25:17;92.45;;;26.98;;
69627;SDS011;56850;51.984;5.088;2023-02-21T07:27:48;106.85;;;26.92;;
69627;SDS011;56850;51.984;5.088;2023-02-21T07:30:15;103.05;;;27.67;;
69627;SDS011;56850;51.984;5.088;2023-02-21T07:32:42;117.93;;;27.98;;
69627;SDS011;56850;51.984;5.088;2023-02-21T07:35:09;109.37;;;26.93;;
69627;SDS011;56850;51.984;5.088;2023-02-21T07:37:36;86.47;;;24.52;;
69627;SDS011;56850;51.984;5.088;2023-02-21T07:40:04;92.97;;;26.67;;
69627;SDS011;56850;51.984;5.088;2023-02-21T07:42:34;95.60;;;27.90;;
69627;SDS011;56850;51.984;5.088;2023-02-21T07:45:01;90.15;;;27.55;;
69627;SDS011;56850;51.984;5.088;2023-02-21T07:47:29;111.23;;;28.23;;
69627;SDS011;56850;51.984;5.088;2023-02-21T07:49:55;126.18;;;29.00;;
69627;SDS011;56850;51.984;5.088;2023-02-21T07:52:22;106.63;;;27.88;;
69627;SDS011;56850;51.984;5.088;2023-02-21T07:54:49;114.43;;;29.25;;
69627;SDS011;56850;51.984;5.088;2023-02-21T07:57:16;103.75;;;28.85;;
69627;SDS011;56850;51.984;5.088;2023-02-21T07:59:43;83.67;;;24.77;;
69627;SDS011;56850;51.984;5.088;2023-02-21T08:02:10;123.15;;;28.35;;
69627;SDS011;56850;51.984;5.088;2023-02-21T08:04:38;109.78;;;30.33;;
69627;SDS011;56850;51.984;5.088;2023-02-21T08:07:06;97.88;;;28.67;;
69627;SDS011;56850;51.984;5.088;2023-02-21T08:09:34;119.32;;;30.17;;
69627;SDS011;56850;51.984;5.088;2023-02-21T08:12:02;113.80;;;30.00;;
69627;SDS011;56850;51.984;5.088;2023-02-21T08:14:29;136.55;;;30.50;;
69627;SDS011;56850;51.984;5.088;2023-02-21T08:16:56;125.10;;;29.55;;
69627;SDS011;56850;51.984;5.088;2023-02-21T08:19:23;132.80;;;31.85;;
69627;SDS011;56850;51.984;5.088;2023-02-21T08:21:50;105.88;;;30.10;;
69627;SDS011;56850;51.984;5.088;2023-02-21T08:24:17;124.03;;;30.90;;
69627;SDS011;56850;51.984;5.088;2023-02-21T08:26:44;117.53;;;31.38;;
69627;SDS011;56850;51.984;5.088;2023-02-21T08:29:13;135.23;;;31.52;;
69627;SDS011;56850;51.984;5.088;2023-02-21T08:31:43;122.35;;;29.17;;
69627;SDS011;56850;51.984;5.088;2023-02-21T08:34:10;110.60;;;30.42;;
69627;SDS011;56850;51.984;5.088;2023-02-21T08:36:39;115.20;;;28.87;;
69627;SDS011;56850;51.984;5.088;2023-02-21T08:39:08;107.43;;;30.30;;
69627;SDS011;56850;51.984;5.088;2023-02-21T08:41:43;104.45;;;27.60;;
69627;SDS011;56850;51.984;5.088;2023-02-21T08:44:11;98.80;;;27.88;;
69627;SDS011;56850;51.984;5.088;2023-02-21T08:46:41;108.40;;;28.85;;
69627;SDS011;56850;51.984;5.088;2023-02-21T08:49:09;104.27;;;28.70;;
69627;SDS011;56850;51.984;5.088;2023-02-21T08:51:36;103.82;;;27.15;;
69627;SDS011;56850;51.984;5.088;2023-02-21T08:54:03;110.20;;;28.88;;
69627;SDS011;56850;51.984;5.088;2023-02-21T08:56:30;95.70;;;26.17;;
69627;SDS011;56850;51.984;5.088;2023-02-21T08:58:57;101.10;;;26.90;;
69627;SDS011;56850;51.984;5.088;2023-02-21T09:01:29;118.53;;;28.87;;
69627;SDS011;56850;51.984;5.088;2023-02-21T09:03:58;105.80;;;28.30;;
69627;SDS011;56850;51.984;5.088;2023-02-21T09:06:25;86.53;;;26.02;;
69627;SDS011;56850;51.984;5.088;2023-02-21T09:08:52;111.10;;;28.55;;
69627;SDS011;56850;51.984;5.088;2023-02-21T09:11:19;101.25;;;27.33;;
69627;SDS011;56850;51.984;5.088;2023-02-21T09:13:46;88.03;;;26.23;;
69627;SDS011;56850;51.984;5.088;2023-02-21T09:16:13;116.00;;;27.80;;
69627;SDS011;56850;51.984;5.088;2023-02-21T09:18:40;113.25;;;28.50;;
69627;SDS011;56850;51.984;5.088;2023-02-21T09:21:06;118.65;;;29.02;;
69627;SDS011;56850;51.984;5.088;2023-02-21T09:23:33;110.28;;;28.17;;
69627;SDS011;56850;51.984;5.088;2023-02-21T09:26:00;95.87;;;26.80;;
69627;SDS011;56850;51.984;5.088;2023-02-21T09:28:27;115.00;;;27.55;;
69627;SDS011;56850;51.984;5.088;2023-02-21T09:30:56;112.20;;;27.92;;
69627;SDS011;56850;51.984;5.088;2023-02-21T09:33:23;91.20;;;24.40;;
69627;SDS011;56850;51.984;5.088;2023-02-21T09:35:50;111.82;;;26.58;;
69627;SDS011;56850;51.984;5.088;2023-02-21T09:38:19;112.97;;;28.67;;
69627;SDS011;56850;51.984;5.088;2023-02-21T09:40:47;91.97;;;25.23;;
69627;SDS011;56850;51.984;5.088;2023-02-21T09:43:30;58.28;;;18.25;;
69627;SDS011;56850;51.984;5.088;2023-02-21T09:46:04;83.70;;;24.15;;
69627;SDS011;56850;51.984;5.088;2023-02-21T09:48:36;89.65;;;23.65;;
69627;SDS011;56850;51.984;5.088;2023-02-21T09:51:05;93.23;;;25.57;;
69627;SDS011;56850;51.984;5.088;2023-02-21T09:53:36;95.60;;;25.80;;
69627;SDS011;56850;51.984;5.088;2023-02-21T09:58:59;115.20;;;27.15;;
69627;SDS011;56850;51.984;5.088;2023-02-21T10:09:28;114.88;;;27.33;;
69627;SDS011;56850;51.984;5.088;2023-02-21T10:15:01;115.22;;;28.60;;
69627;SDS011;56850;51.984;5.088;2023-02-21T10:18:32;107.73;;;27.23;;
69627;SDS011;56850;51.984;5.088;2023-02-21T10:20:51;116.35;;;27.60;;
69627;SDS011;56850;51.984;5.088;2023-02-21T10:23:27;92.30;;;25.77;;
69627;SDS011;56850;51.984;5.088;2023-02-21T10:26:06;120.90;;;28.73;;
69627;SDS011;56850;51.984;5.088;2023-02-21T10:28:36;98.20;;;26.23;;
69627;SDS011;56850;51.984;5.088;2023-02-21T10:31:07;114.47;;;27.23;;
69627;SDS011;56850;51.984;5.088;2023-02-21T10:33:38;107.57;;;28.20;;
69627;SDS011;56850;51.984;5.088;2023-02-21T10:36:09;109.15;;;27.60;;
69627;SDS011;56850;51.984;5.088;2023-02-21T10:38:54;85.22;;;26.10;;
69627;SDS011;56850;51.984;5.088;2023-02-21T10:41:26;100.88;;;28.40;;
69627;SDS011;56850;51.984;5.088;2023-02-21T10:43:57;104.30;;;27.73;;
69627;SDS011;56850;51.984;5.088;2023-02-21T10:46:33;95.70;;;26.98;;
69627;SDS011;56850;51.984;5.088;2023-02-21T10:49:15;86.32;;;25.23;;
69627;SDS011;56850;51.984;5.088;2023-02-21T10:51:42;97.35;;;26.13;;
69627;SDS011;56850;51.984;5.088;2023-02-21T10:54:20;98.65;;;27.05;;
69627;SDS011;56850;51.984;5.088;2023-02-21T10:56:49;95.20;;;26.93;;
69627;SDS011;56850;51.984;5.088;2023-02-21T10:59:19;95.60;;;24.88;;
69627;SDS011;56850;51.984;5.088;2023-02-21T11:01:58;100.70;;;26.77;;
69627;SDS011;56850;51.984;5.088;2023-02-21T11:04:29;81.68;;;21.98;;
69627;SDS011;56850;51.984;5.088;2023-02-21T11:07:05;94.40;;;26.27;;
69627;SDS011;56850;51.984;5.088;2023-02-21T11:09:39;86.13;;;24.70;;
69627;SDS011;56850;51.984;5.088;2023-02-21T11:17:19;84.88;;;24.70;;
69627;SDS011;56850;51.984;5.088;2023-02-21T11:22:25;82.27;;;24.27;;
69627;SDS011;56850;51.984;5.088;2023-02-21T11:27:37;71.38;;;21.50;;
69627;SDS011;56850;51.984;5.088;2023-02-21T11:30:17;64.68;;;19.38;;
69627;SDS011;56850;51.984;5.088;2023-02-21T11:32:50;76.93;;;20.40;;
69627;SDS011;56850;51.984;5.088;2023-02-21T11:35:26;70.63;;;17.90;;
69627;SDS011;56850;51.984;5.088;2023-02-21T11:43:12;38.70;;;15.23;;
69627;SDS011;56850;51.984;5.088;2023-02-21T11:45:45;45.30;;;16.20;;
69627;SDS011;56850;51.984;5.088;2023-02-21T11:48:36;44.23;;;15.60;;
69627;SDS011;56850;51.984;5.088;2023-02-21T11:51:14;43.13;;;14.75;;
69627;SDS011;56850;51.984;5.088;2023-02-21T11:53:57;38.88;;;14.45;;
69627;SDS011;56850;51.984;5.088;2023-02-21T11:56:40;29.40;;;12.98;;
69627;SDS011;56850;51.984;5.088;2023-02-21T12:05:03;22.85;;;10.85;;
69627;SDS011;56850;51.984;5.088;2023-02-21T12:13:13;24.13;;;11.65;;
69627;SDS011;56850;51.984;5.088;2023-02-21T12:27:30;20.65;;;10.65;;
69627;SDS011;56850;51.984;5.088;2023-02-21T12:33:02;19.23;;;9.90;;
69627;SDS011;56850;51.984;5.088;2023-02-21T12:43:53;48.37;;;10.23;;
69627;SDS011;56850;51.984;5.088;2023-02-21T12:46:57;24.30;;;9.32;;
69627;SDS011;56850;51.984;5.088;2023-02-21T12:49:59;18.83;;;9.75;;
69627;SDS011;56850;51.984;5.088;2023-02-21T12:52:59;18.70;;;9.00;;
69627;SDS011;56850;51.984;5.088;2023-02-21T12:55:50;16.33;;;9.35;;
69627;SDS011;56850;51.984;5.088;2023-02-21T12:58:23;19.30;;;9.13;;
69627;SDS011;56850;51.984;5.088;2023-02-21T13:01:04;17.85;;;8.98;;
69627;SDS011;56850;51.984;5.088;2023-02-21T13:06:46;22.52;;;10.75;;
69627;SDS011;56850;51.984;5.088;2023-02-21T13:09:31;21.73;;;10.18;;
69627;SDS011;56850;51.984;5.088;2023-02-21T13:12:16;17.47;;;8.80;;
69627;SDS011;56850;51.984;5.088;2023-02-21T13:15:00;19.33;;;9.75;;
69627;SDS011;56850;51.984;5.088;2023-02-21T13:17:35;18.40;;;9.85;;
69627;SDS011;56850;51.984;5.088;2023-02-21T13:20:06;18.25;;;9.43;;
69627;SDS011;56850;51.984;5.088;2023-02-21T13:22:41;20.15;;;10.75;;
69627;SDS011;56850;51.984;5.088;2023-02-21T13:28:22;23.95;;;11.07;;
69627;SDS011;56850;51.984;5.088;2023-02-21T13:30:58;23.83;;;10.55;;
69627;SDS011;56850;51.984;5.088;2023-02-21T13:33:40;17.40;;;8.68;;
69627;SDS011;56850;51.984;5.088;2023-02-21T13:36:15;19.80;;;9.70;;
69627;SDS011;56850;51.984;5.088;2023-02-21T13:44:34;20.73;;;10.13;;
69627;SDS011;56850;51.984;5.088;2023-02-21T13:47:06;22.88;;;9.10;;
69627;SDS011;56850;51.984;5.088;2023-02-21T13:49:43;22.38;;;10.15;;
69627;SDS011;56850;51.984;5.088;2023-02-21T13:57:41;19.70;;;9.38;;
69627;SDS011;56850;51.984;5.088;2023-02-21T14:02:53;18.40;;;9.63;;
69627;SDS011;56850;51.984;5.088;2023-02-21T14:10:54;14.60;;;7.53;;
69627;SDS011;56850;51.984;5.088;2023-02-21T14:15:59;18.88;;;8.50;;
69627;SDS011;56850;51.984;5.088;2023-02-21T14:18:43;17.97;;;8.87;;
69627;SDS011;56850;51.984;5.088;2023-02-21T14:21:29;20.25;;;9.35;;
69627;SDS011;56850;51.984;5.088;2023-02-21T14:23:59;23.02;;;10.10;;
69627;SDS011;56850;51.984;5.088;2023-02-21T14:32:26;19.87;;;9.73;;
69627;SDS011;56850;51.984;5.088;2023-02-21T14:34:58;19.02;;;9.20;;
69627;SDS011;56850;51.984;5.088;2023-02-21T14:37:32;16.25;;;8.30;;
69627;SDS011;56850;51.984;5.088;2023-02-21T14:40:16;19.88;;;9.48;;
69627;SDS011;56850;51.984;5.088;2023-02-21T14:45:39;18.30;;;8.67;;
69627;SDS011;56850;51.984;5.088;2023-02-21T14:54:00;13.30;;;8.07;;
69627;SDS011;56850;51.984;5.088;2023-02-21T14:59:42;13.93;;;8.27;;
69627;SDS011;56850;51.984;5.088;2023-02-21T15:04:50;13.52;;;8.13;;
69627;SDS011;56850;51.984;5.088;2023-02-21T15:07:32;14.20;;;8.82;;
69627;SDS011;56850;51.984;5.088;2023-02-21T15:10:06;13.82;;;8.43;;
69627;SDS011;56850;51.984;5.088;2023-02-21T15:13:22;14.67;;;8.10;;
69627;SDS011;56850;51.984;5.088;2023-02-21T15:18:11;16.25;;;9.07;;
69627;SDS011;56850;51.984;5.088;2023-02-21T15:23:44;15.65;;;8.35;;
69627;SDS011;56850;51.984;5.088;2023-02-21T15:26:26;15.80;;;8.27;;
69627;SDS011;56850;51.984;5.088;2023-02-21T15:31:40;17.65;;;8.80;;
69627;SDS011;56850;51.984;5.088;2023-02-21T15:34:16;17.90;;;8.98;;
69627;SDS011;56850;51.984;5.088;2023-02-21T15:36:46;15.90;;;8.68;;
69627;SDS011;56850;51.984;5.088;2023-02-21T15:39:28;18.30;;;8.67;;
69627;SDS011;56850;51.984;5.088;2023-02-21T15:42:06;15.02;;;8.02;;
69627;SDS011;56850;51.984;5.088;2023-02-21T15:44:39;17.90;;;9.13;;
69627;SDS011;56850;51.984;5.088;2023-02-21T15:47:34;16.48;;;9.13;;
69627;SDS011;56850;51.984;5.088;2023-02-21T15:50:04;16.92;;;9.77;;
69627;SDS011;56850;51.984;5.088;2023-02-21T15:52:45;19.30;;;8.70;;
69627;SDS011;56850;51.984;5.088;2023-02-21T16:08:56;18.48;;;8.80;;
69627;SDS011;56850;51.984;5.088;2023-02-21T16:11:40;17.90;;;9.30;;
69627;SDS011;56850;51.984;5.088;2023-02-21T16:14:14;19.55;;;8.70;;
69627;SDS011;56850;51.984;5.088;2023-02-21T16:16:44;17.88;;;9.52;;
69627;SDS011;56850;51.984;5.088;2023-02-21T16:19:11;21.10;;;9.63;;
69627;SDS011;56850;51.984;5.088;2023-02-21T16:21:38;22.13;;;10.85;;
69627;SDS011;56850;51.984;5.088;2023-02-21T16:24:25;21.42;;;10.20;;
69627;SDS011;56850;51.984;5.088;2023-02-21T16:27:01;21.58;;;10.50;;
69627;SDS011;56850;51.984;5.088;2023-02-21T16:29:34;23.83;;;11.30;;
69627;SDS011;56850;51.984;5.088;2023-02-21T16:32:01;23.90;;;10.57;;
69627;SDS011;56850;51.984;5.088;2023-02-21T16:34:29;23.17;;;10.75;;
69627;SDS011;56850;51.984;5.088;2023-02-21T16:37:05;23.42;;;11.13;;
69627;SDS011;56850;51.984;5.088;2023-02-21T16:39:38;22.00;;;10.02;;
69627;SDS011;56850;51.984;5.088;2023-02-21T16:42:06;22.20;;;10.40;;
69627;SDS011;56850;51.984;5.088;2023-02-21T16:44:33;27.80;;;11.00;;
69627;SDS011;56850;51.984;5.088;2023-02-21T16:47:00;22.52;;;9.63;;
69627;SDS011;56850;51.984;5.088;2023-02-21T16:49:27;21.77;;;10.32;;
69627;SDS011;56850;51.984;5.088;2023-02-21T16:51:54;23.90;;;9.60;;
69627;SDS011;56850;51.984;5.088;2023-02-21T16:54:21;27.88;;;12.05;;
69627;SDS011;56850;51.984;5.088;2023-02-21T16:56:49;25.70;;;11.53;;
69627;SDS011;56850;51.984;5.088;2023-02-21T16:59:18;25.00;;;11.15;;
69627;SDS011;56850;51.984;5.088;2023-02-21T17:01:47;28.55;;;12.77;;
69627;SDS011;56850;51.984;5.088;2023-02-21T17:04:18;22.90;;;10.98;;
69627;SDS011;56850;51.984;5.088;2023-02-21T17:06:58;27.23;;;12.35;;
69627;SDS011;56850;51.984;5.088;2023-02-21T17:09:29;25.10;;;10.37;;
69627;SDS011;56850;51.984;5.088;2023-02-21T17:12:05;26.75;;;12.25;;
69627;SDS011;56850;51.984;5.088;2023-02-21T17:14:32;26.55;;;11.98;;
69627;SDS011;56850;51.984;5.088;2023-02-21T17:17:00;25.77;;;11.82;;
69627;SDS011;56850;51.984;5.088;2023-02-21T17:19:27;27.95;;;12.27;;
69627;SDS011;56850;51.984;5.088;2023-02-21T17:21:53;29.47;;;12.13;;
69627;SDS011;56850;51.984;5.088;2023-02-21T17:24:23;31.50;;;12.23;;
69627;SDS011;56850;51.984;5.088;2023-02-21T17:26:51;30.95;;;12.50;;
69627;SDS011;56850;51.984;5.088;2023-02-21T17:29:19;28.25;;;11.52;;
69627;SDS011;56850;51.984;5.088;2023-02-21T17:31:50;29.25;;;12.68;;
69627;SDS011;56850;51.984;5.088;2023-02-21T17:34:19;28.43;;;11.60;;
69627;SDS011;56850;51.984;5.088;2023-02-21T17:36:50;29.17;;;12.85;;
69627;SDS011;56850;51.984;5.088;2023-02-21T17:39:18;29.90;;;13.05;;
69627;SDS011;56850;51.984;5.088;2023-02-21T17:41:46;31.27;;;11.70;;
69627;SDS011;56850;51.984;5.088;2023-02-21T17:44:14;32.85;;;13.07;;
69627;SDS011;56850;51.984;5.088;2023-02-21T17:46:50;32.20;;;12.87;;
69627;SDS011;56850;51.984;5.088;2023-02-21T17:49:20;28.42;;;11.93;;
69627;SDS011;56850;51.984;5.088;2023-02-21T17:51:48;27.52;;;12.82;;
69627;SDS011;56850;51.984;5.088;2023-02-21T17:54:17;29.42;;;13.23;;
69627;SDS011;56850;51.984;5.088;2023-02-21T17:56:45;27.83;;;13.13;;